createdAt,value
2017-06-18T00:01:05.576Z,19.00
2017-06-18T00:03:33.815Z,18.80
2017-06-18T00:06:01.268Z,18.90
2017-06-18T00:08:28.718Z,18.50
2017-06-18T00:10:56.176Z,18.60
2017-06-18T00:13:23.630Z,18.70
2017-06-18T00:15:51.088Z,18.60
2017-06-18T00:18:18.550Z,18.80
2017-06-18T00:20:46.003Z,18.70
2017-06-18T00:23:13.450Z,18.50
2017-06-18T00:25:40.902Z,18.50
2017-06-18T00:28:08.343Z,18.50
2017-06-18T00:30:35.804Z,18.30
2017-06-18T00:33:03.255Z,18.30
2017-06-18T00:35:30.723Z,18.40
2017-06-18T00:37:58.142Z,18.60
2017-06-18T00:40:25.583Z,18.60
2017-06-18T00:42:53.799Z,18.80
2017-06-18T00:45:21.230Z,18.80
2017-06-18T00:47:48.679Z,18.90
2017-06-18T00:50:16.883Z,19.10
2017-06-18T00:52:44.338Z,19.10
2017-06-18T00:55:11.782Z,18.60
2017-06-18T00:57:39.231Z,18.30
2017-06-18T01:00:06.663Z,18.30
2017-06-18T01:02:34.897Z,18.20
2017-06-18T01:05:02.339Z,18.20
2017-06-18T01:07:29.775Z,18.10
2017-06-18T01:09:57.238Z,18.10
2017-06-18T01:12:24.675Z,17.90
2017-06-18T01:14:52.122Z,18.00
2017-06-18T01:17:20.322Z,17.90
2017-06-18T01:19:47.770Z,17.90
2017-06-18T01:22:15.207Z,17.90
2017-06-18T01:24:43.428Z,18.10
2017-06-18T01:27:10.858Z,18.10
2017-06-18T01:29:38.303Z,18.30
2017-06-18T01:32:05.738Z,18.30
2017-06-18T01:34:33.950Z,18.00
2017-06-18T01:37:01.386Z,18.00
2017-06-18T01:39:29.602Z,18.30
2017-06-18T01:41:57.050Z,18.30
2017-06-18T01:44:24.507Z,18.40
2017-06-18T01:46:51.947Z,18.40
2017-06-18T01:49:19.387Z,18.50
2017-06-18T01:51:46.839Z,18.20
2017-06-18T01:54:15.046Z,17.70
2017-06-18T01:56:42.503Z,17.70
2017-06-18T01:59:09.946Z,17.60
2017-06-18T02:01:37.391Z,17.70
2017-06-18T02:04:04.827Z,17.60
2017-06-18T02:06:33.047Z,17.80
2017-06-18T02:09:00.483Z,17.70
2017-06-18T02:11:27.931Z,17.80
2017-06-18T02:13:55.371Z,17.80
2017-06-18T02:16:22.819Z,18.00
2017-06-18T02:18:50.260Z,17.90
2017-06-18T02:21:17.702Z,17.80
2017-06-18T02:23:45.150Z,17.80
2017-06-18T02:26:12.591Z,17.80
2017-06-18T02:28:40.051Z,17.70
2017-06-18T02:31:07.490Z,17.80
2017-06-18T02:33:34.935Z,17.90
2017-06-18T02:36:02.375Z,18.00
2017-06-18T02:38:30.591Z,18.30
2017-06-18T02:40:58.028Z,18.30
2017-06-18T02:43:25.475Z,18.40
2017-06-18T02:45:52.915Z,18.40
2017-06-18T02:48:21.134Z,18.30
2017-06-18T02:50:48.575Z,18.30
2017-06-18T02:53:16.019Z,18.30
2017-06-18T02:55:43.458Z,17.90
2017-06-18T02:58:11.675Z,18.20
2017-06-18T03:00:39.118Z,18.20
2017-06-18T03:03:06.567Z,18.10
2017-06-18T03:05:34.010Z,17.90
2017-06-18T03:08:01.451Z,17.70
2017-06-18T03:10:29.671Z,17.50
2017-06-18T03:12:57.115Z,17.50
2017-06-18T03:15:24.563Z,17.60
2017-06-18T03:17:52.003Z,17.80
2017-06-18T03:20:20.214Z,17.90
2017-06-18T03:22:53.387Z,17.90
2017-06-18T03:25:20.831Z,17.70
2017-06-18T03:27:48.274Z,17.30
2017-06-18T03:30:16.490Z,17.20
2017-06-18T03:32:43.930Z,17.20
2017-06-18T03:35:11.376Z,17.20
2017-06-18T03:37:38.818Z,17.30
2017-06-18T03:40:07.059Z,17.20
2017-06-18T03:42:34.499Z,17.20
2017-06-18T03:45:01.946Z,17.20
2017-06-18T03:47:29.402Z,17.20
2017-06-18T03:49:56.851Z,17.30
2017-06-18T03:52:24.290Z,17.30
2017-06-18T03:54:51.734Z,17.20
2017-06-18T03:57:19.947Z,17.00
2017-06-18T03:59:47.386Z,17.00
2017-06-18T04:02:14.834Z,17.10
2017-06-18T04:04:42.279Z,17.20
2017-06-18T04:07:10.495Z,17.50
2017-06-18T04:09:37.939Z,17.50
2017-06-18T04:12:05.400Z,17.70
2017-06-18T04:14:32.838Z,17.80
2017-06-18T04:17:00.289Z,17.90
2017-06-18T04:19:27.723Z,17.90
2017-06-18T04:21:55.939Z,17.60
2017-06-18T04:24:23.396Z,17.60
2017-06-18T04:26:50.834Z,17.70
2017-06-18T04:29:18.282Z,18.00
2017-06-18T04:31:45.724Z,18.20
2017-06-18T04:34:13.936Z,18.30
2017-06-18T04:36:41.379Z,18.30
2017-06-18T04:39:08.822Z,18.40
2017-06-18T04:41:36.268Z,18.60
2017-06-18T04:44:04.478Z,18.80
2017-06-18T04:46:31.923Z,18.80
2017-06-18T04:48:59.371Z,18.80
2017-06-18T04:51:26.811Z,19.10
2017-06-18T04:53:55.019Z,19.40
2017-06-18T04:56:22.465Z,19.30
2017-06-18T04:58:49.918Z,19.60
2017-06-18T05:01:17.374Z,19.70
2017-06-18T05:03:44.814Z,20.00
2017-06-18T05:06:12.274Z,20.20
2017-06-18T05:08:39.725Z,20.10
2017-06-18T05:11:07.955Z,19.80
2017-06-18T05:13:35.406Z,19.70
2017-06-18T05:16:02.862Z,19.80
2017-06-18T05:18:30.311Z,19.80
2017-06-18T05:20:57.759Z,19.30
2017-06-18T05:23:25.214Z,19.20
2017-06-18T05:25:52.671Z,19.30
2017-06-18T05:28:20.127Z,19.60
2017-06-18T05:30:47.582Z,19.90
2017-06-18T05:33:15.030Z,19.70
2017-06-18T05:35:42.495Z,20.10
2017-06-18T05:38:09.951Z,20.60
2017-06-18T05:40:37.395Z,21.90
2017-06-18T05:43:04.846Z,21.80
2017-06-18T05:45:33.059Z,24.20
2017-06-18T05:48:00.511Z,24.10
2017-06-18T05:50:27.950Z,25.00
2017-06-18T05:52:55.396Z,23.80
2017-06-18T05:55:22.839Z,25.50
2017-06-18T05:57:51.051Z,23.40
2017-06-18T06:00:18.500Z,23.30
2017-06-18T06:02:45.947Z,25.30
2017-06-18T06:05:13.396Z,22.90
2017-06-18T06:07:40.931Z,21.60
2017-06-18T06:10:09.138Z,21.30
2017-06-18T06:12:36.574Z,21.30
2017-06-18T06:15:04.795Z,24.70
2017-06-18T06:17:32.234Z,24.70
2017-06-18T06:19:59.691Z,24.20
2017-06-18T06:22:27.135Z,25.90
2017-06-18T06:24:54.582Z,26.70
2017-06-18T06:27:22.021Z,27.30
2017-06-18T06:29:50.240Z,29.60
2017-06-18T06:32:17.679Z,29.50
2017-06-18T06:34:45.135Z,30.30
2017-06-18T06:37:12.635Z,30.80
2017-06-18T06:39:40.076Z,31.40
2017-06-18T06:42:07.520Z,30.40
2017-06-18T06:44:34.959Z,30.60
2017-06-18T06:47:02.415Z,29.80
2017-06-18T06:49:29.850Z,30.70
2017-06-18T06:51:58.094Z,30.00
2017-06-18T06:54:25.535Z,30.00
2017-06-18T06:56:52.982Z,29.70
2017-06-18T06:59:20.428Z,28.20
2017-06-18T07:01:47.883Z,27.40
2017-06-18T07:04:15.339Z,27.60
2017-06-18T07:06:42.795Z,28.30
2017-06-18T07:09:10.252Z,27.50
2017-06-18T07:11:37.718Z,27.40
2017-06-18T07:14:05.162Z,28.00
2017-06-18T07:16:32.607Z,25.10
2017-06-18T07:19:00.051Z,26.90
2017-06-18T07:21:27.499Z,27.50
2017-06-18T07:23:54.952Z,28.40
2017-06-18T07:26:22.395Z,29.10
2017-06-18T07:28:49.854Z,30.00
2017-06-18T07:31:17.303Z,28.70
2017-06-18T07:33:44.755Z,29.20
2017-06-18T07:36:12.242Z,30.40
2017-06-18T07:38:39.691Z,30.60
2017-06-18T07:41:07.132Z,29.90
2017-06-18T07:43:34.587Z,29.40
2017-06-18T07:46:02.035Z,28.20
2017-06-18T07:48:29.494Z,27.40
2017-06-18T07:50:56.978Z,27.90
2017-06-18T07:53:24.435Z,27.20
2017-06-18T07:55:52.738Z,26.50
2017-06-18T07:58:20.179Z,26.50
2017-06-18T08:00:47.689Z,27.70
2017-06-18T08:03:15.163Z,28.50
2017-06-18T08:05:43.378Z,27.80
2017-06-18T08:08:10.837Z,27.70
2017-06-18T08:10:38.290Z,26.30
2017-06-18T08:13:05.735Z,23.50
2017-06-18T08:15:33.208Z,22.30
2017-06-18T08:18:00.679Z,23.80
2017-06-18T08:20:28.203Z,25.20
2017-06-18T08:22:55.639Z,26.30
2017-06-18T08:25:23.111Z,27.20
2017-06-18T08:27:50.546Z,26.70
2017-06-18T08:30:17.986Z,26.40
2017-06-18T08:32:45.444Z,24.70
2017-06-18T08:35:12.882Z,25.70
2017-06-18T08:37:40.345Z,24.80
2017-06-18T08:40:07.795Z,25.70
2017-06-18T08:42:35.243Z,26.40
2017-06-18T08:45:02.686Z,26.50
2017-06-18T08:47:30.140Z,26.40
2017-06-18T08:49:57.588Z,26.40
2017-06-18T08:52:25.044Z,27.20
2017-06-18T08:54:52.494Z,27.80
2017-06-18T08:57:20.083Z,27.70
2017-06-18T08:59:47.531Z,26.60
2017-06-18T09:02:14.982Z,25.30
2017-06-18T09:04:42.430Z,25.20
2017-06-18T09:07:10.372Z,26.80
2017-06-18T09:09:37.806Z,27.30
2017-06-18T09:12:06.052Z,28.10
2017-06-18T09:14:34.263Z,27.30
2017-06-18T09:17:01.719Z,27.20
2017-06-18T09:19:29.180Z,26.90
2017-06-18T09:21:56.614Z,28.00
2017-06-18T09:24:24.062Z,25.60
2017-06-18T09:26:51.507Z,24.90
2017-06-18T09:29:18.976Z,26.60
2017-06-18T09:31:46.431Z,25.80
2017-06-18T09:34:13.878Z,26.80
2017-06-18T09:36:41.322Z,25.60
2017-06-18T09:39:08.772Z,27.00
2017-06-18T09:41:36.215Z,27.90
2017-06-18T09:44:03.682Z,28.50
2017-06-18T09:46:31.139Z,24.60
2017-06-18T09:48:58.592Z,24.80
2017-06-18T09:51:26.035Z,26.70
2017-06-18T09:53:54.252Z,28.10
2017-06-18T09:56:21.708Z,28.10
2017-06-18T09:58:49.151Z,27.90
2017-06-18T10:01:16.595Z,26.80
2017-06-18T10:03:44.039Z,26.40
2017-06-18T10:06:12.251Z,27.50
2017-06-18T10:08:39.708Z,27.50
2017-06-18T10:11:07.179Z,28.30
2017-06-18T10:13:34.619Z,29.00
2017-06-18T10:16:02.827Z,28.40
2017-06-18T10:18:30.287Z,27.60
2017-06-18T10:20:57.731Z,26.80
2017-06-18T10:23:27.764Z,27.30
2017-06-18T10:25:55.291Z,28.60
2017-06-18T10:28:22.751Z,28.40
2017-06-18T10:30:50.195Z,28.70
2017-06-18T10:33:17.648Z,29.00
2017-06-18T10:35:45.091Z,29.40
2017-06-18T10:38:12.538Z,29.70
2017-06-18T10:40:39.983Z,29.60
2017-06-18T10:43:07.435Z,29.90
2017-06-18T10:45:35.647Z,28.10
2017-06-18T10:48:03.087Z,28.10
2017-06-18T10:50:30.527Z,28.20
2017-06-18T10:52:57.971Z,28.90
2017-06-18T10:55:26.190Z,28.80
2017-06-18T10:57:53.643Z,28.80
2017-06-18T11:00:21.118Z,29.40
2017-06-18T11:02:48.561Z,28.80
2017-06-18T11:05:16.010Z,26.60
2017-06-18T11:07:43.466Z,27.80
2017-06-18T11:10:10.931Z,27.20
2017-06-18T11:12:38.381Z,26.30
2017-06-18T11:15:05.838Z,26.90
2017-06-18T11:17:33.295Z,26.50
2017-06-18T11:20:00.763Z,27.50
2017-06-18T11:22:28.207Z,28.50
2017-06-18T11:24:55.733Z,28.70
2017-06-18T11:27:23.256Z,27.90
2017-06-18T11:29:50.699Z,27.50
2017-06-18T11:32:18.911Z,26.10
2017-06-18T11:34:46.364Z,26.00
2017-06-18T11:37:13.985Z,25.30
2017-06-18T11:39:42.211Z,26.60
2017-06-18T11:42:09.655Z,26.60
2017-06-18T11:44:37.111Z,27.50
2017-06-18T11:47:04.565Z,28.00
2017-06-18T11:49:31.994Z,27.80
2017-06-18T11:51:59.492Z,27.20
2017-06-18T11:54:27.038Z,27.10
2017-06-18T11:56:54.515Z,27.60
2017-06-18T11:59:21.963Z,26.90
2017-06-18T12:01:49.411Z,28.00
2017-06-18T12:04:16.862Z,25.90
2017-06-18T12:06:44.318Z,26.70
2017-06-18T12:09:11.783Z,26.90
2017-06-18T12:11:39.226Z,27.10
2017-06-18T12:14:06.666Z,27.90
2017-06-18T12:16:34.113Z,27.90
2017-06-18T12:19:02.332Z,28.20
2017-06-18T12:21:29.779Z,28.20
2017-06-18T12:23:57.232Z,28.90
2017-06-18T12:26:24.682Z,29.00
2017-06-18T12:28:52.143Z,28.70
2017-06-18T12:31:19.587Z,28.60
2017-06-18T12:33:47.035Z,27.70
2017-06-18T12:36:14.475Z,28.20
2017-06-18T12:38:42.686Z,27.80
2017-06-18T12:41:10.143Z,27.80
2017-06-18T12:43:37.582Z,27.80
2017-06-18T12:46:05.031Z,27.90
2017-06-18T12:49:13.886Z,27.50
2017-06-18T12:51:41.335Z,27.50
2017-06-18T12:54:08.785Z,27.10
2017-06-18T12:56:36.246Z,27.00
2017-06-18T12:59:03.706Z,26.90
2017-06-18T13:01:31.163Z,27.00
2017-06-18T13:03:58.621Z,26.30
2017-06-18T13:06:26.998Z,27.10
2017-06-18T13:08:54.508Z,27.80
2017-06-18T13:11:21.981Z,28.00
2017-06-18T13:13:50.191Z,26.90
2017-06-18T13:16:17.646Z,26.80
2017-06-18T13:18:45.101Z,26.50
2017-06-18T13:21:12.531Z,26.80
2017-06-18T13:23:39.983Z,27.20
2017-06-18T13:26:07.423Z,27.30
2017-06-18T13:28:34.866Z,27.60
2017-06-18T13:31:02.312Z,27.80
2017-06-18T13:33:29.763Z,27.80
2017-06-18T13:35:57.211Z,28.00
2017-06-18T13:38:24.669Z,28.10
2017-06-18T13:40:52.111Z,28.20
2017-06-18T13:43:19.563Z,28.10
2017-06-18T13:45:47.013Z,28.30
2017-06-18T13:48:15.427Z,28.20
2017-06-18T13:50:42.875Z,28.00
2017-06-18T13:53:10.311Z,27.50
2017-06-18T13:55:38.566Z,27.30
2017-06-18T13:58:06.024Z,27.30
2017-06-18T14:00:33.467Z,27.30
2017-06-18T14:03:00.915Z,27.50
2017-06-18T14:05:28.378Z,27.60
2017-06-18T14:07:55.899Z,27.70
2017-06-18T14:10:23.359Z,27.30
2017-06-18T14:12:50.811Z,27.20
2017-06-18T14:15:18.269Z,27.20
2017-06-18T14:17:45.710Z,27.20
2017-06-18T14:20:13.159Z,27.30
2017-06-18T14:22:40.611Z,27.20
2017-06-18T14:25:08.851Z,27.10
2017-06-18T14:27:36.304Z,27.10
2017-06-18T14:30:03.747Z,27.00
2017-06-18T14:32:31.195Z,27.20
2017-06-18T14:34:58.635Z,27.40
2017-06-18T14:37:26.096Z,25.90
2017-06-18T14:39:53.550Z,26.30
2017-06-18T14:42:21.007Z,26.80
2017-06-18T14:44:48.447Z,27.10
2017-06-18T14:47:15.899Z,27.20
2017-06-18T14:49:43.340Z,27.30
2017-06-18T14:52:11.560Z,27.30
2017-06-18T14:54:39.003Z,27.30
2017-06-18T14:57:06.472Z,27.50
2017-06-18T14:59:33.915Z,27.30
2017-06-18T15:02:01.388Z,27.40
2017-06-18T15:04:28.831Z,27.20
2017-06-18T15:06:56.295Z,27.20
2017-06-18T15:09:23.739Z,27.30
2017-06-18T15:11:51.182Z,27.10
2017-06-18T15:14:18.631Z,27.20
2017-06-18T15:16:46.075Z,27.30
2017-06-18T15:19:13.531Z,27.20
2017-06-18T15:21:40.975Z,27.40
2017-06-18T15:24:08.428Z,27.40
2017-06-18T15:26:35.868Z,26.90
2017-06-18T15:29:03.316Z,27.20
2017-06-18T15:31:30.787Z,27.20
2017-06-18T15:33:58.239Z,27.20
2017-06-18T15:36:25.694Z,27.00
2017-06-18T15:38:53.155Z,27.00
2017-06-18T15:41:20.644Z,26.90
2017-06-18T15:43:48.091Z,27.00
2017-06-18T15:46:15.536Z,26.90
2017-06-18T15:48:42.994Z,26.90
2017-06-18T15:51:10.854Z,26.90
2017-06-18T15:53:38.298Z,26.90
2017-06-18T15:56:05.781Z,26.70
2017-06-18T15:58:34.002Z,26.50
2017-06-18T16:01:01.452Z,26.50
2017-06-18T16:03:28.903Z,26.50
2017-06-18T16:05:56.361Z,26.60
2017-06-18T16:08:23.822Z,26.70
2017-06-18T16:10:51.283Z,26.70
2017-06-18T16:13:18.734Z,26.70
2017-06-18T16:15:46.183Z,26.60
2017-06-18T16:18:13.627Z,26.70
2017-06-18T16:20:41.082Z,26.70
2017-06-18T16:23:08.835Z,26.70
2017-06-18T16:25:36.291Z,26.80
2017-06-18T16:28:03.747Z,26.80
2017-06-18T16:30:31.202Z,26.70
2017-06-18T16:32:58.665Z,26.70
2017-06-18T16:35:26.115Z,26.80
2017-06-18T16:37:53.613Z,26.70
2017-06-18T16:40:21.067Z,26.50
2017-06-18T16:42:48.522Z,26.70
2017-06-18T16:45:15.967Z,26.70
2017-06-18T16:47:43.424Z,26.70
2017-06-18T16:50:10.859Z,26.60
2017-06-18T16:52:38.338Z,26.70
2017-06-18T16:55:05.785Z,26.50
2017-06-18T16:57:33.231Z,26.40
2017-06-18T17:00:00.683Z,26.50
2017-06-18T17:02:28.126Z,26.40
2017-06-18T17:04:56.342Z,26.40
2017-06-18T17:07:23.786Z,26.40
2017-06-18T17:09:51.231Z,26.40
2017-06-18T17:12:18.679Z,26.40
2017-06-18T17:14:46.120Z,26.40
2017-06-18T17:17:13.558Z,26.20
2017-06-18T17:19:41.772Z,26.10
2017-06-18T17:22:14.967Z,26.10
2017-06-18T17:24:42.420Z,26.10
2017-06-18T17:27:10.714Z,26.10
2017-06-18T17:29:38.947Z,25.90
2017-06-18T17:32:06.451Z,25.90
2017-06-18T17:34:33.931Z,25.80
2017-06-18T17:37:01.378Z,25.90
2017-06-18T17:39:28.815Z,25.90
2017-06-18T17:41:56.264Z,25.80
2017-06-18T17:44:24.471Z,25.70
2017-06-18T17:46:51.914Z,25.70
2017-06-18T17:49:19.351Z,25.70
2017-06-18T17:51:46.795Z,25.70
2017-06-18T17:54:14.235Z,25.80
2017-06-18T17:56:41.678Z,25.70
2017-06-18T17:59:09.189Z,25.70
2017-06-18T18:01:36.659Z,25.70
2017-06-18T18:04:04.104Z,25.60
2017-06-18T18:06:32.310Z,25.60
2017-06-18T18:08:59.766Z,25.60
2017-06-18T18:11:27.217Z,25.50
2017-06-18T18:13:54.655Z,25.40
2017-06-18T18:16:22.101Z,25.40
2017-06-18T18:18:49.558Z,25.40
2017-06-18T18:21:17.771Z,25.30
2017-06-18T18:23:45.258Z,25.30
2017-06-18T18:26:12.702Z,25.30
2017-06-18T18:28:40.159Z,25.20
2017-06-18T18:31:07.626Z,25.20
2017-06-18T18:33:35.111Z,25.10
2017-06-18T18:36:02.563Z,25.10
2017-06-18T18:38:30.021Z,25.10
2017-06-18T18:40:57.459Z,25.00
2017-06-18T18:43:24.911Z,24.90
2017-06-18T18:45:52.355Z,24.90
2017-06-18T18:48:19.807Z,24.80
2017-06-18T18:50:47.251Z,24.80
2017-06-18T18:53:14.694Z,24.70
2017-06-18T18:55:42.151Z,24.80
2017-06-18T18:58:09.595Z,24.70
2017-06-18T19:00:37.038Z,24.60
2017-06-18T19:03:04.483Z,24.50
2017-06-18T19:05:31.932Z,24.50
2017-06-18T19:08:00.151Z,24.40
2017-06-18T19:10:27.607Z,24.40
2017-06-18T19:12:55.051Z,24.20
2017-06-18T19:15:28.406Z,24.20
2017-06-18T19:17:56.615Z,24.00
2017-06-18T19:20:24.063Z,24.00
2017-06-18T19:22:51.518Z,24.00
2017-06-18T19:25:18.988Z,24.00
2017-06-18T19:27:46.465Z,23.90
2017-06-18T19:30:13.912Z,23.90
2017-06-18T19:32:41.359Z,23.80
2017-06-18T19:35:08.815Z,23.70
2017-06-18T19:37:36.278Z,23.70
2017-06-18T19:40:03.714Z,23.60
2017-06-18T19:42:31.166Z,23.50
2017-06-18T19:44:58.602Z,22.80
2017-06-18T19:47:26.056Z,22.20
2017-06-18T19:49:53.504Z,22.10
2017-06-18T19:52:20.951Z,21.60
2017-06-18T19:54:48.403Z,21.30
2017-06-18T19:57:15.859Z,21.10
2017-06-18T19:59:43.298Z,20.80
2017-06-18T20:02:10.740Z,20.60
2017-06-18T20:04:38.195Z,20.50
2017-06-18T20:07:05.636Z,20.70
2017-06-18T20:09:33.084Z,20.60
2017-06-18T20:12:00.519Z,20.40
2017-06-18T20:14:27.967Z,20.10
2017-06-18T20:16:55.416Z,20.10
2017-06-18T20:19:22.869Z,20.30
2017-06-18T20:21:50.303Z,20.40
2017-06-18T20:24:17.758Z,20.20
2017-06-18T20:26:45.963Z,20.00
2017-06-18T20:29:13.421Z,20.00
2017-06-18T20:31:40.862Z,19.90
2017-06-18T20:34:08.315Z,19.70
2017-06-18T20:36:35.770Z,19.60
2017-06-18T20:39:03.243Z,19.50
2017-06-18T20:41:30.699Z,19.30
2017-06-18T20:43:58.138Z,19.10
2017-06-18T20:46:26.355Z,18.70
2017-06-18T20:48:53.799Z,18.60
2017-06-18T20:51:21.242Z,18.80
2017-06-18T20:53:48.679Z,18.60
2017-06-18T20:56:16.159Z,18.40
2017-06-18T20:58:43.731Z,18.50
2017-06-18T21:01:11.196Z,18.50
2017-06-18T21:03:38.646Z,18.40
2017-06-18T21:06:06.872Z,18.40
2017-06-18T21:08:34.314Z,18.40
2017-06-18T21:11:02.125Z,18.30
2017-06-18T21:13:29.633Z,18.20
2017-06-18T21:15:57.237Z,18.10
2017-06-18T21:18:24.744Z,17.80
2017-06-18T21:20:52.194Z,17.80
2017-06-18T21:23:19.630Z,17.60
2017-06-18T21:25:47.071Z,17.60
2017-06-18T21:28:14.518Z,17.50
2017-06-18T21:30:42.727Z,17.50
2017-06-18T21:33:10.203Z,17.50
2017-06-18T21:35:37.639Z,17.40
2017-06-18T21:38:05.087Z,17.40
2017-06-18T21:40:32.527Z,17.30
2017-06-18T21:42:59.980Z,17.40
2017-06-18T21:45:27.525Z,17.50
2017-06-18T21:47:55.015Z,17.40
2017-06-18T21:50:22.458Z,17.40
2017-06-18T21:52:49.942Z,17.50
2017-06-18T21:55:17.386Z,17.30
2017-06-18T21:57:44.826Z,17.20
2017-06-18T22:00:12.275Z,17.10
2017-06-18T22:02:39.715Z,16.90
2017-06-18T22:05:07.174Z,16.80
2017-06-18T22:07:34.615Z,16.80
2017-06-18T22:10:02.067Z,16.60
2017-06-18T22:12:29.507Z,16.50
2017-06-18T22:14:57.720Z,16.60
2017-06-18T22:17:25.276Z,16.50
2017-06-18T22:19:52.711Z,16.50
2017-06-18T22:22:20.152Z,16.40
2017-06-18T22:24:47.599Z,16.40
2017-06-18T22:27:15.815Z,16.30
2017-06-18T22:29:43.259Z,16.30
2017-06-18T22:32:10.709Z,16.40
2017-06-18T22:34:38.940Z,16.30
2017-06-18T22:37:06.379Z,16.20
2017-06-18T22:39:33.819Z,16.30
2017-06-18T22:42:01.275Z,16.30
2017-06-18T22:44:28.718Z,16.20
2017-06-18T22:46:56.170Z,16.10
2017-06-18T22:49:23.610Z,16.20
2017-06-18T22:51:51.055Z,16.20
2017-06-18T22:54:19.258Z,16.00
2017-06-18T22:56:46.707Z,16.00
2017-06-18T22:59:14.151Z,16.10
2017-06-18T23:01:41.594Z,16.10
2017-06-18T23:04:09.799Z,16.00
2017-06-18T23:06:37.246Z,16.00
2017-06-18T23:09:04.687Z,15.90
2017-06-18T23:11:32.911Z,15.80
2017-06-18T23:14:00.355Z,15.80
2017-06-18T23:16:27.803Z,15.70
2017-06-18T23:18:55.243Z,15.70
2017-06-18T23:21:22.678Z,15.80
2017-06-18T23:23:50.895Z,15.60
2017-06-18T23:26:18.335Z,15.60
2017-06-18T23:28:45.784Z,15.60
2017-06-18T23:31:13.222Z,15.60
2017-06-18T23:33:41.435Z,15.70
2017-06-18T23:36:08.895Z,15.70
2017-06-18T23:38:36.362Z,15.60
2017-06-18T23:41:03.808Z,15.60
2017-06-18T23:43:31.256Z,15.30
2017-06-18T23:45:58.695Z,15.30
2017-06-18T23:48:26.135Z,15.30
2017-06-18T23:50:54.346Z,15.50
2017-06-18T23:53:21.783Z,15.50
2017-06-18T23:55:49.231Z,15.60
2017-06-18T23:58:16.668Z,15.60
